sensor_id;sensor_type;location;lat;lon;timestamp;temperature;humidity
14727;DHT22;7454;51.256;8.176;2023-02-26T00:01:36;0.50;75.90
14727;DHT22;7454;51.256;8.176;2023-02-26T00:04:02;0.50;75.90
14727;DHT22;7454;51.256;8.176;2023-02-26T00:06:30;0.40;75.70
14727;DHT22;7454;51.256;8.176;2023-02-26T00:08:57;0.30;75.50
14727;DHT22;7454;51.256;8.176;2023-02-26T00:11:23;0.30;75.70
14727;DHT22;7454;51.256;8.176;2023-02-26T00:13:49;0.30;75.60
14727;DHT22;7454;51.256;8.176;2023-02-26T00:18:49;0.20;75.60
14727;DHT22;7454;51.256;8.176;2023-02-26T00:21:18;0.20;75.70
14727;DHT22;7454;51.256;8.176;2023-02-26T00:23:45;0.20;75.40
14727;DHT22;7454;51.256;8.176;2023-02-26T00:26:11;0.20;75.60
14727;DHT22;7454;51.256;8.176;2023-02-26T00:28:37;0.20;75.50
14727;DHT22;7454;51.256;8.176;2023-02-26T00:31:03;0.20;75.50
14727;DHT22;7454;51.256;8.176;2023-02-26T00:33:29;0.20;75.50
14727;DHT22;7454;51.256;8.176;2023-02-26T00:35:57;0.10;75.50
14727;DHT22;7454;51.256;8.176;2023-02-26T00:38:29;0.10;75.30
14727;DHT22;7454;51.256;8.176;2023-02-26T00:40:57;0.10;75.30
14727;DHT22;7454;51.256;8.176;2023-02-26T00:43:23;0.10;75.40
14727;DHT22;7454;51.256;8.176;2023-02-26T00:46:09;0.10;75.40
14727;DHT22;7454;51.256;8.176;2023-02-26T00:51:18;0.10;75.50
14727;DHT22;7454;51.256;8.176;2023-02-26T00:56:24;0.00;75.30
14727;DHT22;7454;51.256;8.176;2023-02-26T00:58:49;0.10;75.20
14727;DHT22;7454;51.256;8.176;2023-02-26T01:01:15;0.10;75.30
14727;DHT22;7454;51.256;8.176;2023-02-26T01:03:41;0.10;75.30
14727;DHT22;7454;51.256;8.176;2023-02-26T01:06:11;0.10;75.30
14727;DHT22;7454;51.256;8.176;2023-02-26T01:08:42;0.10;75.40
14727;DHT22;7454;51.256;8.176;2023-02-26T01:11:12;0.10;75.30
14727;DHT22;7454;51.256;8.176;2023-02-26T01:13:38;0.20;75.50
14727;DHT22;7454;51.256;8.176;2023-02-26T01:16:08;0.20;75.50
14727;DHT22;7454;51.256;8.176;2023-02-26T01:18:41;0.20;75.50
14727;DHT22;7454;51.256;8.176;2023-02-26T01:21:11;0.30;75.60
14727;DHT22;7454;51.256;8.176;2023-02-26T01:23:40;0.20;75.40
14727;DHT22;7454;51.256;8.176;2023-02-26T01:26:15;0.30;75.50
14727;DHT22;7454;51.256;8.176;2023-02-26T01:28:45;0.30;75.40
14727;DHT22;7454;51.256;8.176;2023-02-26T01:31:28;0.30;75.30
14727;DHT22;7454;51.256;8.176;2023-02-26T01:34:02;0.20;75.20
14727;DHT22;7454;51.256;8.176;2023-02-26T01:36:32;0.20;75.20
14727;DHT22;7454;51.256;8.176;2023-02-26T01:39:05;0.10;75.30
14727;DHT22;7454;51.256;8.176;2023-02-26T01:41:38;0.10;75.40
14727;DHT22;7454;51.256;8.176;2023-02-26T01:49:20;0.20;75.40
14727;DHT22;7454;51.256;8.176;2023-02-26T01:54:18;0.10;75.40
14727;DHT22;7454;51.256;8.176;2023-02-26T01:56:46;0.10;75.50
14727;DHT22;7454;51.256;8.176;2023-02-26T01:59:15;0.10;75.30
14727;DHT22;7454;51.256;8.176;2023-02-26T02:01:41;0.00;75.30
14727;DHT22;7454;51.256;8.176;2023-02-26T02:04:09;0.00;75.30
14727;DHT22;7454;51.256;8.176;2023-02-26T02:06:37;0.00;75.30
14727;DHT22;7454;51.256;8.176;2023-02-26T02:09:04;0.00;75.30
14727;DHT22;7454;51.256;8.176;2023-02-26T02:11:31;0.00;75.20
14727;DHT22;7454;51.256;8.176;2023-02-26T02:16:47;0.00;75.30
14727;DHT22;7454;51.256;8.176;2023-02-26T02:19:42;-0.10;75.30
14727;DHT22;7454;51.256;8.176;2023-02-26T02:33:42;-0.10;75.40
14727;DHT22;7454;51.256;8.176;2023-02-26T02:36:19;-0.10;75.40
14727;DHT22;7454;51.256;8.176;2023-02-26T02:38:53;-0.10;75.30
14727;DHT22;7454;51.256;8.176;2023-02-26T02:41:56;-0.10;75.50
14727;DHT22;7454;51.256;8.176;2023-02-26T02:44:19;-0.10;75.40
14727;DHT22;7454;51.256;8.176;2023-02-26T02:46:48;-0.10;75.40
14727;DHT22;7454;51.256;8.176;2023-02-26T02:49:29;-0.10;75.60
14727;DHT22;7454;51.256;8.176;2023-02-26T02:52:07;-0.10;75.50
14727;DHT22;7454;51.256;8.176;2023-02-26T02:54:44;-0.20;75.50
14727;DHT22;7454;51.256;8.176;2023-02-26T02:57:17;-0.20;75.60
14727;DHT22;7454;51.256;8.176;2023-02-26T02:59:46;-0.20;75.70
14727;DHT22;7454;51.256;8.176;2023-02-26T03:04:44;-0.20;75.70
14727;DHT22;7454;51.256;8.176;2023-02-26T03:07:10;-0.20;75.60
14727;DHT22;7454;51.256;8.176;2023-02-26T03:09:35;-0.20;75.80
14727;DHT22;7454;51.256;8.176;2023-02-26T03:12:02;-0.20;75.70
14727;DHT22;7454;51.256;8.176;2023-02-26T03:14:29;-0.20;75.80
14727;DHT22;7454;51.256;8.176;2023-02-26T03:36:09;-0.30;75.80
14727;DHT22;7454;51.256;8.176;2023-02-26T03:38:45;-0.30;75.80
14727;DHT22;7454;51.256;8.176;2023-02-26T03:41:16;-0.30;75.80
14727;DHT22;7454;51.256;8.176;2023-02-26T03:46:17;-0.30;75.80
14727;DHT22;7454;51.256;8.176;2023-02-26T03:48:47;-0.30;75.90
14727;DHT22;7454;51.256;8.176;2023-02-26T03:51:15;-0.30;76.00
14727;DHT22;7454;51.256;8.176;2023-02-26T03:54:20;-0.30;75.90
14727;DHT22;7454;51.256;8.176;2023-02-26T03:57:00;-0.40;75.80
14727;DHT22;7454;51.256;8.176;2023-02-26T03:59:56;-0.40;75.80
14727;DHT22;7454;51.256;8.176;2023-02-26T04:03:01;-0.40;75.80
14727;DHT22;7454;51.256;8.176;2023-02-26T04:05:34;-0.40;75.80
14727;DHT22;7454;51.256;8.176;2023-02-26T04:08:01;-0.40;75.80
14727;DHT22;7454;51.256;8.176;2023-02-26T04:10:37;-0.40;75.80
14727;DHT22;7454;51.256;8.176;2023-02-26T04:13:07;-0.40;75.80
14727;DHT22;7454;51.256;8.176;2023-02-26T04:15:33;-0.40;75.80
14727;DHT22;7454;51.256;8.176;2023-02-26T04:17:58;-0.40;75.80
14727;DHT22;7454;51.256;8.176;2023-02-26T04:20:25;-0.40;75.80
14727;DHT22;7454;51.256;8.176;2023-02-26T04:22:52;-0.40;75.90
14727;DHT22;7454;51.256;8.176;2023-02-26T04:25:21;-0.40;75.90
14727;DHT22;7454;51.256;8.176;2023-02-26T04:27:46;-0.40;76.00
14727;DHT22;7454;51.256;8.176;2023-02-26T04:30:12;-0.40;75.90
14727;DHT22;7454;51.256;8.176;2023-02-26T04:32:38;-0.40;75.90
14727;DHT22;7454;51.256;8.176;2023-02-26T04:35:05;-0.40;75.90
14727;DHT22;7454;51.256;8.176;2023-02-26T04:37:31;-0.50;75.90
14727;DHT22;7454;51.256;8.176;2023-02-26T04:39:57;-0.50;75.90
14727;DHT22;7454;51.256;8.176;2023-02-26T04:42:23;-0.50;76.00
14727;DHT22;7454;51.256;8.176;2023-02-26T04:44:48;-0.60;75.90
14727;DHT22;7454;51.256;8.176;2023-02-26T04:47:14;-0.60;76.00
14727;DHT22;7454;51.256;8.176;2023-02-26T04:49:40;-0.60;76.00
14727;DHT22;7454;51.256;8.176;2023-02-26T04:52:06;-0.60;76.00
14727;DHT22;7454;51.256;8.176;2023-02-26T04:54:32;-0.60;75.90
14727;DHT22;7454;51.256;8.176;2023-02-26T04:56:58;-0.60;75.80
14727;DHT22;7454;51.256;8.176;2023-02-26T04:59:23;-0.60;75.80
14727;DHT22;7454;51.256;8.176;2023-02-26T05:01:50;-0.60;76.00
14727;DHT22;7454;51.256;8.176;2023-02-26T05:04:15;-0.50;75.90
14727;DHT22;7454;51.256;8.176;2023-02-26T05:06:44;-0.60;75.70
14727;DHT22;7454;51.256;8.176;2023-02-26T05:09:09;-0.60;75.80
14727;DHT22;7454;51.256;8.176;2023-02-26T05:11:35;-0.70;75.80
14727;DHT22;7454;51.256;8.176;2023-02-26T05:14:00;-0.70;75.80
14727;DHT22;7454;51.256;8.176;2023-02-26T05:16:27;-0.60;75.80
14727;DHT22;7454;51.256;8.176;2023-02-26T05:18:52;-0.60;75.90
14727;DHT22;7454;51.256;8.176;2023-02-26T05:21:18;-0.60;76.00
14727;DHT22;7454;51.256;8.176;2023-02-26T05:23:46;-0.60;75.80
14727;DHT22;7454;51.256;8.176;2023-02-26T05:26:12;-0.60;75.80
14727;DHT22;7454;51.256;8.176;2023-02-26T05:28:37;-0.60;76.00
14727;DHT22;7454;51.256;8.176;2023-02-26T05:31:03;-0.60;76.00
14727;DHT22;7454;51.256;8.176;2023-02-26T05:33:29;-0.60;75.80
14727;DHT22;7454;51.256;8.176;2023-02-26T05:35:54;-0.60;76.00
14727;DHT22;7454;51.256;8.176;2023-02-26T05:38:21;-0.60;76.00
14727;DHT22;7454;51.256;8.176;2023-02-26T05:40:47;-0.60;75.90
14727;DHT22;7454;51.256;8.176;2023-02-26T05:43:13;-0.70;75.90
14727;DHT22;7454;51.256;8.176;2023-02-26T05:45:39;-0.60;76.00
14727;DHT22;7454;51.256;8.176;2023-02-26T05:48:04;-0.60;75.90
14727;DHT22;7454;51.256;8.176;2023-02-26T05:50:30;-0.70;75.90
14727;DHT22;7454;51.256;8.176;2023-02-26T05:52:55;-0.70;76.10
14727;DHT22;7454;51.256;8.176;2023-02-26T05:55:21;-0.70;76.10
14727;DHT22;7454;51.256;8.176;2023-02-26T05:57:47;-0.70;76.00
14727;DHT22;7454;51.256;8.176;2023-02-26T06:00:13;-0.70;76.10
14727;DHT22;7454;51.256;8.176;2023-02-26T06:02:39;-0.80;75.90
14727;DHT22;7454;51.256;8.176;2023-02-26T06:05:05;-0.80;76.00
14727;DHT22;7454;51.256;8.176;2023-02-26T06:07:31;-0.80;76.10
14727;DHT22;7454;51.256;8.176;2023-02-26T06:09:56;-0.80;76.10
14727;DHT22;7454;51.256;8.176;2023-02-26T06:12:22;-0.80;76.10
14727;DHT22;7454;51.256;8.176;2023-02-26T06:14:48;-0.80;76.00
14727;DHT22;7454;51.256;8.176;2023-02-26T06:17:13;-0.80;76.10
14727;DHT22;7454;51.256;8.176;2023-02-26T06:19:39;-0.90;76.10
14727;DHT22;7454;51.256;8.176;2023-02-26T06:22:04;-0.80;76.10
14727;DHT22;7454;51.256;8.176;2023-02-26T06:24:30;-0.80;76.20
14727;DHT22;7454;51.256;8.176;2023-02-26T06:26:55;-0.80;76.10
14727;DHT22;7454;51.256;8.176;2023-02-26T06:29:21;-0.80;76.10
14727;DHT22;7454;51.256;8.176;2023-02-26T06:31:47;-0.80;76.10
14727;DHT22;7454;51.256;8.176;2023-02-26T06:34:13;-0.80;76.00
14727;DHT22;7454;51.256;8.176;2023-02-26T06:36:39;-0.80;76.10
14727;DHT22;7454;51.256;8.176;2023-02-26T06:39:05;-0.80;76.10
14727;DHT22;7454;51.256;8.176;2023-02-26T06:41:30;-0.80;76.00
14727;DHT22;7454;51.256;8.176;2023-02-26T06:43:56;-0.80;76.10
14727;DHT22;7454;51.256;8.176;2023-02-26T06:46:21;-0.80;76.10
14727;DHT22;7454;51.256;8.176;2023-02-26T06:48:47;-0.80;76.20
14727;DHT22;7454;51.256;8.176;2023-02-26T06:51:12;-0.80;76.00
14727;DHT22;7454;51.256;8.176;2023-02-26T06:53:38;-0.80;76.20
14727;DHT22;7454;51.256;8.176;2023-02-26T06:56:04;-0.80;76.10
14727;DHT22;7454;51.256;8.176;2023-02-26T06:58:30;-0.80;76.00
14727;DHT22;7454;51.256;8.176;2023-02-26T07:00:55;-0.80;76.00
14727;DHT22;7454;51.256;8.176;2023-02-26T07:03:21;-0.80;76.00
14727;DHT22;7454;51.256;8.176;2023-02-26T07:05:47;-0.80;76.10
14727;DHT22;7454;51.256;8.176;2023-02-26T07:08:13;-0.80;76.20
14727;DHT22;7454;51.256;8.176;2023-02-26T07:10:39;-0.80;76.10
14727;DHT22;7454;51.256;8.176;2023-02-26T07:13:05;-0.70;76.10
14727;DHT22;7454;51.256;8.176;2023-02-26T07:15:30;-0.80;76.10
14727;DHT22;7454;51.256;8.176;2023-02-26T07:17:56;-0.70;76.10
14727;DHT22;7454;51.256;8.176;2023-02-26T07:20:25;-0.80;76.10
14727;DHT22;7454;51.256;8.176;2023-02-26T07:22:51;-0.80;76.00
14727;DHT22;7454;51.256;8.176;2023-02-26T07:25:16;-0.80;76.10
14727;DHT22;7454;51.256;8.176;2023-02-26T07:27:42;-0.80;76.10
14727;DHT22;7454;51.256;8.176;2023-02-26T07:30:08;-0.80;76.20
14727;DHT22;7454;51.256;8.176;2023-02-26T07:32:34;-0.70;76.20
14727;DHT22;7454;51.256;8.176;2023-02-26T07:35:00;-0.70;76.10
14727;DHT22;7454;51.256;8.176;2023-02-26T07:37:25;-0.70;76.30
14727;DHT22;7454;51.256;8.176;2023-02-26T07:39:51;-0.70;76.20
14727;DHT22;7454;51.256;8.176;2023-02-26T07:42:17;-0.60;76.40
14727;DHT22;7454;51.256;8.176;2023-02-26T07:44:43;-0.60;76.20
14727;DHT22;7454;51.256;8.176;2023-02-26T07:47:09;-0.50;76.30
14727;DHT22;7454;51.256;8.176;2023-02-26T07:49:35;-0.50;76.20
14727;DHT22;7454;51.256;8.176;2023-02-26T07:52:00;-0.50;76.10
14727;DHT22;7454;51.256;8.176;2023-02-26T07:54:26;-0.40;76.10
14727;DHT22;7454;51.256;8.176;2023-02-26T07:56:52;-0.40;76.10
14727;DHT22;7454;51.256;8.176;2023-02-26T07:59:18;-0.40;76.00
14727;DHT22;7454;51.256;8.176;2023-02-26T08:01:43;-0.40;75.90
14727;DHT22;7454;51.256;8.176;2023-02-26T08:04:09;-0.40;75.70
14727;DHT22;7454;51.256;8.176;2023-02-26T08:06:34;-0.40;75.70
14727;DHT22;7454;51.256;8.176;2023-02-26T08:09:00;-0.30;75.80
14727;DHT22;7454;51.256;8.176;2023-02-26T08:11:27;-0.30;75.70
14727;DHT22;7454;51.256;8.176;2023-02-26T08:13:52;-0.30;75.90
14727;DHT22;7454;51.256;8.176;2023-02-26T08:16:18;-0.30;75.60
14727;DHT22;7454;51.256;8.176;2023-02-26T08:18:44;-0.20;75.80
14727;DHT22;7454;51.256;8.176;2023-02-26T08:21:10;-0.10;75.80
14727;DHT22;7454;51.256;8.176;2023-02-26T08:23:36;-0.10;75.80
14727;DHT22;7454;51.256;8.176;2023-02-26T08:26:02;-0.10;75.70
14727;DHT22;7454;51.256;8.176;2023-02-26T08:28:29;-0.10;75.50
14727;DHT22;7454;51.256;8.176;2023-02-26T08:30:55;-0.10;75.50
14727;DHT22;7454;51.256;8.176;2023-02-26T08:33:20;0.00;75.60
14727;DHT22;7454;51.256;8.176;2023-02-26T08:35:47;0.00;75.50
14727;DHT22;7454;51.256;8.176;2023-02-26T08:38:13;0.00;75.30
14727;DHT22;7454;51.256;8.176;2023-02-26T08:40:39;0.00;75.40
14727;DHT22;7454;51.256;8.176;2023-02-26T08:43:04;0.00;75.40
14727;DHT22;7454;51.256;8.176;2023-02-26T08:45:30;0.00;75.30
14727;DHT22;7454;51.256;8.176;2023-02-26T08:47:56;-0.10;75.10
14727;DHT22;7454;51.256;8.176;2023-02-26T08:50:21;-0.10;75.10
14727;DHT22;7454;51.256;8.176;2023-02-26T08:52:47;-0.10;75.20
14727;DHT22;7454;51.256;8.176;2023-02-26T08:55:13;-0.10;75.10
14727;DHT22;7454;51.256;8.176;2023-02-26T08:57:38;-0.10;75.20
14727;DHT22;7454;51.256;8.176;2023-02-26T09:00:04;-0.10;75.30
14727;DHT22;7454;51.256;8.176;2023-02-26T09:02:35;-0.10;75.20
14727;DHT22;7454;51.256;8.176;2023-02-26T09:05:01;-0.10;75.20
14727;DHT22;7454;51.256;8.176;2023-02-26T09:07:27;-0.10;75.00
14727;DHT22;7454;51.256;8.176;2023-02-26T09:09:52;-0.10;74.90
14727;DHT22;7454;51.256;8.176;2023-02-26T09:12:18;-0.10;74.80
14727;DHT22;7454;51.256;8.176;2023-02-26T09:14:43;-0.10;74.90
14727;DHT22;7454;51.256;8.176;2023-02-26T09:17:09;0.00;75.00
14727;DHT22;7454;51.256;8.176;2023-02-26T09:19:34;0.00;74.90
14727;DHT22;7454;51.256;8.176;2023-02-26T09:22:00;0.00;74.90
14727;DHT22;7454;51.256;8.176;2023-02-26T09:24:26;0.00;74.90
14727;DHT22;7454;51.256;8.176;2023-02-26T09:26:51;0.00;74.90
14727;DHT22;7454;51.256;8.176;2023-02-26T09:29:17;0.10;75.10
14727;DHT22;7454;51.256;8.176;2023-02-26T09:31:43;0.00;74.60
14727;DHT22;7454;51.256;8.176;2023-02-26T09:34:08;0.10;74.60
14727;DHT22;7454;51.256;8.176;2023-02-26T09:36:34;0.10;74.70
14727;DHT22;7454;51.256;8.176;2023-02-26T09:38:59;0.10;74.70
14727;DHT22;7454;51.256;8.176;2023-02-26T09:41:29;0.20;74.70
14727;DHT22;7454;51.256;8.176;2023-02-26T09:44:11;0.20;74.80
14727;DHT22;7454;51.256;8.176;2023-02-26T09:46:43;0.30;74.50
14727;DHT22;7454;51.256;8.176;2023-02-26T09:52:03;0.40;74.30
14727;DHT22;7454;51.256;8.176;2023-02-26T09:54:45;0.40;74.00
14727;DHT22;7454;51.256;8.176;2023-02-26T09:57:14;0.40;73.90
14727;DHT22;7454;51.256;8.176;2023-02-26T09:59:46;0.50;74.00
14727;DHT22;7454;51.256;8.176;2023-02-26T10:02:16;0.60;73.90
14727;DHT22;7454;51.256;8.176;2023-02-26T10:04:59;0.60;73.70
14727;DHT22;7454;51.256;8.176;2023-02-26T10:07:36;0.70;73.40
14727;DHT22;7454;51.256;8.176;2023-02-26T10:12:40;0.70;73.30
14727;DHT22;7454;51.256;8.176;2023-02-26T10:20:30;0.60;72.90
14727;DHT22;7454;51.256;8.176;2023-02-26T10:23:05;0.60;72.80
14727;DHT22;7454;51.256;8.176;2023-02-26T10:25:48;0.50;72.80
14727;DHT22;7454;51.256;8.176;2023-02-26T10:28:34;0.60;72.60
14727;DHT22;7454;51.256;8.176;2023-02-26T10:31:06;0.70;72.40
14727;DHT22;7454;51.256;8.176;2023-02-26T10:33:39;0.70;71.80
14727;DHT22;7454;51.256;8.176;2023-02-26T10:36:17;0.60;72.00
14727;DHT22;7454;51.256;8.176;2023-02-26T10:38:48;0.70;71.70
14727;DHT22;7454;51.256;8.176;2023-02-26T10:41:17;0.70;71.20
14727;DHT22;7454;51.256;8.176;2023-02-26T10:43:47;0.70;71.40
14727;DHT22;7454;51.256;8.176;2023-02-26T10:46:38;0.80;71.60
14727;DHT22;7454;51.256;8.176;2023-02-26T10:51:50;0.90;71.30
14727;DHT22;7454;51.256;8.176;2023-02-26T10:54:23;1.00;71.40
14727;DHT22;7454;51.256;8.176;2023-02-26T10:56:52;1.00;71.00
14727;DHT22;7454;51.256;8.176;2023-02-26T10:59:17;1.10;70.90
14727;DHT22;7454;51.256;8.176;2023-02-26T11:01:43;1.00;70.00
14727;DHT22;7454;51.256;8.176;2023-02-26T11:04:13;1.00;69.70
14727;DHT22;7454;51.256;8.176;2023-02-26T11:06:53;1.00;70.00
14727;DHT22;7454;51.256;8.176;2023-02-26T11:09:42;1.00;69.90
14727;DHT22;7454;51.256;8.176;2023-02-26T11:14:37;1.00;69.60
14727;DHT22;7454;51.256;8.176;2023-02-26T11:17:06;1.00;69.80
14727;DHT22;7454;51.256;8.176;2023-02-26T11:19:37;1.00;69.40
14727;DHT22;7454;51.256;8.176;2023-02-26T11:22:04;1.00;69.30
14727;DHT22;7454;51.256;8.176;2023-02-26T11:27:02;1.10;68.70
14727;DHT22;7454;51.256;8.176;2023-02-26T11:29:34;1.00;68.70
14727;DHT22;7454;51.256;8.176;2023-02-26T11:32:03;1.00;68.70
14727;DHT22;7454;51.256;8.176;2023-02-26T11:34:29;1.00;68.80
14727;DHT22;7454;51.256;8.176;2023-02-26T11:36:56;1.10;69.00
14727;DHT22;7454;51.256;8.176;2023-02-26T11:39:24;1.10;69.40
14727;DHT22;7454;51.256;8.176;2023-02-26T11:41:52;1.20;68.80
14727;DHT22;7454;51.256;8.176;2023-02-26T11:44:23;1.20;68.90
14727;DHT22;7454;51.256;8.176;2023-02-26T11:46:58;1.30;69.10
14727;DHT22;7454;51.256;8.176;2023-02-26T11:49:27;1.30;69.20
14727;DHT22;7454;51.256;8.176;2023-02-26T11:52:03;1.40;68.70
14727;DHT22;7454;51.256;8.176;2023-02-26T11:54:36;1.40;68.90
14727;DHT22;7454;51.256;8.176;2023-02-26T11:57:06;1.40;68.20
14727;DHT22;7454;51.256;8.176;2023-02-26T11:59:39;1.40;68.50
14727;DHT22;7454;51.256;8.176;2023-02-26T12:02:12;1.40;68.50
14727;DHT22;7454;51.256;8.176;2023-02-26T12:04:39;1.50;68.50
14727;DHT22;7454;51.256;8.176;2023-02-26T12:07:08;1.50;67.70
14727;DHT22;7454;51.256;8.176;2023-02-26T12:09:37;1.50;67.20
14727;DHT22;7454;51.256;8.176;2023-02-26T12:14:52;1.50;67.20
14727;DHT22;7454;51.256;8.176;2023-02-26T12:20:02;1.60;66.90
14727;DHT22;7454;51.256;8.176;2023-02-26T12:22:50;1.60;66.60
14727;DHT22;7454;51.256;8.176;2023-02-26T12:25:31;1.60;66.80
14727;DHT22;7454;51.256;8.176;2023-02-26T12:30:46;1.50;66.00
14727;DHT22;7454;51.256;8.176;2023-02-26T12:33:30;1.50;66.30
14727;DHT22;7454;51.256;8.176;2023-02-26T12:36:07;1.50;66.30
14727;DHT22;7454;51.256;8.176;2023-02-26T12:39:37;1.50;66.00
14727;DHT22;7454;51.256;8.176;2023-02-26T12:45:22;1.70;65.90
14727;DHT22;7454;51.256;8.176;2023-02-26T12:56:12;2.10;65.60
14727;DHT22;7454;51.256;8.176;2023-02-26T13:01:43;2.00;64.50
14727;DHT22;7454;51.256;8.176;2023-02-26T13:10:06;1.80;64.20
14727;DHT22;7454;51.256;8.176;2023-02-26T13:15:20;1.80;64.10
14727;DHT22;7454;51.256;8.176;2023-02-26T13:18:16;1.90;63.80
14727;DHT22;7454;51.256;8.176;2023-02-26T13:20:51;2.00;63.70
14727;DHT22;7454;51.256;8.176;2023-02-26T13:23:47;2.10;64.20
14727;DHT22;7454;51.256;8.176;2023-02-26T13:26:14;2.10;64.50
14727;DHT22;7454;51.256;8.176;2023-02-26T13:28:57;2.10;64.90
14727;DHT22;7454;51.256;8.176;2023-02-26T13:31:28;2.00;64.70
14727;DHT22;7454;51.256;8.176;2023-02-26T13:37:04;1.90;64.80
14727;DHT22;7454;51.256;8.176;2023-02-26T13:39:54;1.90;64.40
14727;DHT22;7454;51.256;8.176;2023-02-26T13:45:12;1.90;65.00
14727;DHT22;7454;51.256;8.176;2023-02-26T13:50:39;2.00;63.90
14727;DHT22;7454;51.256;8.176;2023-02-26T13:58:43;2.00;63.80
14727;DHT22;7454;51.256;8.176;2023-02-26T14:01:26;2.00;63.60
14727;DHT22;7454;51.256;8.176;2023-02-26T14:19:40;2.10;62.90
14727;DHT22;7454;51.256;8.176;2023-02-26T14:22:34;2.10;62.90
14727;DHT22;7454;51.256;8.176;2023-02-26T14:25:14;2.10;62.90
14727;DHT22;7454;51.256;8.176;2023-02-26T14:27:41;2.10;62.80
14727;DHT22;7454;51.256;8.176;2023-02-26T14:37:58;2.10;62.90
14727;DHT22;7454;51.256;8.176;2023-02-26T14:40:28;2.10;62.80
14727;DHT22;7454;51.256;8.176;2023-02-26T14:43:00;2.10;62.80
14727;DHT22;7454;51.256;8.176;2023-02-26T14:45:29;2.00;62.60
14727;DHT22;7454;51.256;8.176;2023-02-26T14:47:57;2.10;62.40
14727;DHT22;7454;51.256;8.176;2023-02-26T14:50:23;2.10;62.80
14727;DHT22;7454;51.256;8.176;2023-02-26T14:52:59;2.20;62.50
14727;DHT22;7454;51.256;8.176;2023-02-26T14:55:34;2.10;62.30
14727;DHT22;7454;51.256;8.176;2023-02-26T15:01:56;2.10;62.30
14727;DHT22;7454;51.256;8.176;2023-02-26T15:04:12;2.00;61.90
14727;DHT22;7454;51.256;8.176;2023-02-26T15:10:05;1.80;61.40
14727;DHT22;7454;51.256;8.176;2023-02-26T15:23:38;1.90;61.50
14727;DHT22;7454;51.256;8.176;2023-02-26T15:26:06;1.90;61.70
14727;DHT22;7454;51.256;8.176;2023-02-26T15:28:37;1.90;61.60
14727;DHT22;7454;51.256;8.176;2023-02-26T15:31:05;1.90;61.50
14727;DHT22;7454;51.256;8.176;2023-02-26T15:33:32;1.90;61.50
14727;DHT22;7454;51.256;8.176;2023-02-26T15:35:59;1.90;61.80
14727;DHT22;7454;51.256;8.176;2023-02-26T15:38:25;1.90;61.90
14727;DHT22;7454;51.256;8.176;2023-02-26T15:40:54;1.90;62.50
14727;DHT22;7454;51.256;8.176;2023-02-26T15:43:23;1.80;62.60
14727;DHT22;7454;51.256;8.176;2023-02-26T15:45:51;1.80;62.70
14727;DHT22;7454;51.256;8.176;2023-02-26T15:48:19;1.80;62.70
14727;DHT22;7454;51.256;8.176;2023-02-26T15:50:47;1.80;62.80
14727;DHT22;7454;51.256;8.176;2023-02-26T15:53:19;1.80;62.90
14727;DHT22;7454;51.256;8.176;2023-02-26T15:55:49;1.80;62.80
14727;DHT22;7454;51.256;8.176;2023-02-26T15:58:18;1.80;62.80
14727;DHT22;7454;51.256;8.176;2023-02-26T16:00:51;1.80;62.70
14727;DHT22;7454;51.256;8.176;2023-02-26T16:03:24;1.70;62.50
14727;DHT22;7454;51.256;8.176;2023-02-26T16:05:52;1.70;62.50
14727;DHT22;7454;51.256;8.176;2023-02-26T16:08:19;1.70;62.20
14727;DHT22;7454;51.256;8.176;2023-02-26T16:10:44;1.70;62.50
14727;DHT22;7454;51.256;8.176;2023-02-26T16:13:13;1.70;62.10
14727;DHT22;7454;51.256;8.176;2023-02-26T16:15:40;1.70;62.30
14727;DHT22;7454;51.256;8.176;2023-02-26T16:18:07;1.80;62.40
14727;DHT22;7454;51.256;8.176;2023-02-26T16:20:46;1.60;62.10
14727;DHT22;7454;51.256;8.176;2023-02-26T16:23:18;1.60;62.40
14727;DHT22;7454;51.256;8.176;2023-02-26T16:25:49;1.60;62.30
14727;DHT22;7454;51.256;8.176;2023-02-26T16:28:19;1.60;62.50
14727;DHT22;7454;51.256;8.176;2023-02-26T16:30:47;1.60;62.70
14727;DHT22;7454;51.256;8.176;2023-02-26T16:33:14;1.60;62.80
14727;DHT22;7454;51.256;8.176;2023-02-26T16:35:48;1.50;62.90
14727;DHT22;7454;51.256;8.176;2023-02-26T16:38:24;1.50;63.00
14727;DHT22;7454;51.256;8.176;2023-02-26T16:40:56;1.50;62.90
14727;DHT22;7454;51.256;8.176;2023-02-26T16:46:14;1.40;63.20
14727;DHT22;7454;51.256;8.176;2023-02-26T16:48:46;1.30;63.10
14727;DHT22;7454;51.256;8.176;2023-02-26T16:51:16;1.30;63.20
14727;DHT22;7454;51.256;8.176;2023-02-26T16:53:46;1.30;63.40
14727;DHT22;7454;51.256;8.176;2023-02-26T16:56:17;1.30;63.40
14727;DHT22;7454;51.256;8.176;2023-02-26T16:58:45;1.20;63.40
14727;DHT22;7454;51.256;8.176;2023-02-26T17:01:14;1.20;63.50
14727;DHT22;7454;51.256;8.176;2023-02-26T17:03:44;1.20;63.60
14727;DHT22;7454;51.256;8.176;2023-02-26T17:06:14;1.10;63.60
14727;DHT22;7454;51.256;8.176;2023-02-26T17:08:49;1.10;63.60
14727;DHT22;7454;51.256;8.176;2023-02-26T17:11:18;1.00;63.60
14727;DHT22;7454;51.256;8.176;2023-02-26T17:13:56;1.00;63.70
14727;DHT22;7454;51.256;8.176;2023-02-26T17:16:31;1.00;63.80
14727;DHT22;7454;51.256;8.176;2023-02-26T17:18:56;1.00;63.90
14727;DHT22;7454;51.256;8.176;2023-02-26T17:21:22;1.00;63.80
14727;DHT22;7454;51.256;8.176;2023-02-26T17:23:48;0.90;63.90
14727;DHT22;7454;51.256;8.176;2023-02-26T17:26:13;0.90;64.00
14727;DHT22;7454;51.256;8.176;2023-02-26T17:28:40;0.90;64.10
14727;DHT22;7454;51.256;8.176;2023-02-26T17:31:07;0.90;64.10
14727;DHT22;7454;51.256;8.176;2023-02-26T17:33:33;0.90;64.00
14727;DHT22;7454;51.256;8.176;2023-02-26T17:36:00;0.90;64.00
14727;DHT22;7454;51.256;8.176;2023-02-26T17:38:26;0.80;64.10
14727;DHT22;7454;51.256;8.176;2023-02-26T17:40:52;0.80;64.20
14727;DHT22;7454;51.256;8.176;2023-02-26T17:43:20;0.80;64.20
14727;DHT22;7454;51.256;8.176;2023-02-26T17:45:46;0.80;64.30
14727;DHT22;7454;51.256;8.176;2023-02-26T17:48:12;0.70;64.40
14727;DHT22;7454;51.256;8.176;2023-02-26T17:50:52;0.70;64.40
14727;DHT22;7454;51.256;8.176;2023-02-26T17:53:20;0.80;64.40
14727;DHT22;7454;51.256;8.176;2023-02-26T17:55:47;0.70;64.40
14727;DHT22;7454;51.256;8.176;2023-02-26T17:58:25;0.70;64.50
14727;DHT22;7454;51.256;8.176;2023-02-26T18:00:54;0.80;64.50
14727;DHT22;7454;51.256;8.176;2023-02-26T18:03:20;0.70;64.50
14727;DHT22;7454;51.256;8.176;2023-02-26T18:05:46;0.70;64.60
14727;DHT22;7454;51.256;8.176;2023-02-26T18:08:15;0.80;64.90
14727;DHT22;7454;51.256;8.176;2023-02-26T18:10:45;0.80;64.80
14727;DHT22;7454;51.256;8.176;2023-02-26T18:13:11;0.80;64.80
14727;DHT22;7454;51.256;8.176;2023-02-26T18:15:36;0.80;64.70
14727;DHT22;7454;51.256;8.176;2023-02-26T18:18:02;0.80;64.70
14727;DHT22;7454;51.256;8.176;2023-02-26T18:20:30;0.80;64.80
14727;DHT22;7454;51.256;8.176;2023-02-26T18:22:56;0.80;64.80
14727;DHT22;7454;51.256;8.176;2023-02-26T18:25:21;0.80;65.10
14727;DHT22;7454;51.256;8.176;2023-02-26T18:27:49;0.70;65.00
14727;DHT22;7454;51.256;8.176;2023-02-26T18:30:22;0.80;65.00
14727;DHT22;7454;51.256;8.176;2023-02-26T18:32:49;0.80;64.90
14727;DHT22;7454;51.256;8.176;2023-02-26T18:35:14;0.80;65.20
14727;DHT22;7454;51.256;8.176;2023-02-26T18:37:42;0.80;65.30
14727;DHT22;7454;51.256;8.176;2023-02-26T18:40:10;0.80;65.20
14727;DHT22;7454;51.256;8.176;2023-02-26T18:42:40;0.80;65.30
14727;DHT22;7454;51.256;8.176;2023-02-26T18:45:06;0.70;65.20
14727;DHT22;7454;51.256;8.176;2023-02-26T18:47:32;0.80;65.20
14727;DHT22;7454;51.256;8.176;2023-02-26T18:49:58;0.80;65.30
14727;DHT22;7454;51.256;8.176;2023-02-26T18:52:23;0.70;65.20